createdAt,value
2017-07-03T00:00:46.409Z,1000.98
2017-07-03T00:01:46.433Z,1000.98
2017-07-03T00:02:46.467Z,1000.94
2017-07-03T00:03:46.493Z,1000.94
2017-07-03T00:04:46.525Z,1000.95
2017-07-03T00:05:46.549Z,1000.97
2017-07-03T00:06:46.578Z,1000.97
2017-07-03T00:07:46.602Z,1000.99
2017-07-03T00:08:46.628Z,1000.99
2017-07-03T00:09:46.661Z,1000.97
2017-07-03T00:10:46.690Z,1000.97
2017-07-03T00:11:46.714Z,1000.95
2017-07-03T00:12:46.744Z,1000.94
2017-07-03T00:13:46.769Z,1000.96
2017-07-03T00:14:46.799Z,1000.95
2017-07-03T00:15:46.827Z,1001
2017-07-03T00:16:46.853Z,1000.97
2017-07-03T00:17:46.883Z,1000.96
2017-07-03T00:18:46.913Z,1000.98
2017-07-03T00:19:46.935Z,1000.98
2017-07-03T00:20:46.963Z,1000.98
2017-07-03T00:21:46.991Z,1000.97
2017-07-03T00:22:47.017Z,1000.94
2017-07-03T00:23:47.045Z,1000.98
2017-07-03T00:24:47.076Z,1000.93
2017-07-03T00:25:47.102Z,1000.91
2017-07-03T00:26:47.130Z,1000.92
2017-07-03T00:27:47.158Z,1000.9
2017-07-03T00:28:47.189Z,1000.9
2017-07-03T00:29:47.212Z,1000.88
2017-07-03T00:30:47.241Z,1000.85
2017-07-03T00:31:47.270Z,1000.85
2017-07-03T00:32:47.294Z,1000.88
2017-07-03T00:33:47.319Z,1000.86
2017-07-03T00:34:47.353Z,1000.82
2017-07-03T00:35:47.381Z,1000.83
2017-07-03T00:36:47.406Z,1000.81
2017-07-03T00:37:47.434Z,1000.8
2017-07-03T00:38:47.460Z,1000.82
2017-07-03T00:39:47.489Z,1000.82
2017-07-03T00:40:47.517Z,1000.8
2017-07-03T00:41:47.547Z,1000.8
2017-07-03T00:42:47.567Z,1000.79
2017-07-03T00:43:47.596Z,1000.83
2017-07-03T00:44:47.628Z,1000.79
2017-07-03T00:45:47.657Z,1000.79
2017-07-03T00:46:47.682Z,1000.84
2017-07-03T00:47:47.706Z,1000.8
2017-07-03T00:48:47.779Z,1000.84
2017-07-03T00:49:47.761Z,1000.8
2017-07-03T00:50:47.798Z,1000.82
2017-07-03T00:51:47.816Z,1000.82
2017-07-03T00:52:47.851Z,1000.81
2017-07-03T00:53:47.870Z,1000.77
2017-07-03T00:54:48.204Z,1000.79
2017-07-03T00:55:47.932Z,1000.78
2017-07-03T00:56:47.957Z,1000.75
2017-07-03T00:57:47.989Z,1000.75
2017-07-03T00:58:48.011Z,1000.77
2017-07-03T00:59:48.293Z,1000.75
2017-07-03T01:00:48.069Z,1000.71
2017-07-03T01:01:48.097Z,1000.75
2017-07-03T01:02:48.127Z,1000.71
2017-07-03T01:03:48.153Z,1000.75
2017-07-03T01:04:48.433Z,1000.7
2017-07-03T01:05:48.209Z,1000.72
2017-07-03T01:06:48.237Z,1000.7
2017-07-03T01:07:48.264Z,1000.72
2017-07-03T01:08:48.289Z,1000.73
2017-07-03T01:09:48.319Z,1000.75
2017-07-03T01:10:48.341Z,1000.74
2017-07-03T01:11:48.373Z,1000.72
2017-07-03T01:12:48.402Z,1000.75
2017-07-03T01:13:48.428Z,1000.74
2017-07-03T01:14:48.457Z,1000.74
2017-07-03T01:15:48.485Z,1000.74
2017-07-03T01:16:48.513Z,1000.74
2017-07-03T01:17:48.537Z,1000.76
2017-07-03T01:18:48.570Z,1000.75
2017-07-03T01:19:48.596Z,1000.71
2017-07-03T01:20:48.623Z,1000.7
2017-07-03T01:21:48.649Z,1000.73
2017-07-03T01:22:48.679Z,1000.73
2017-07-03T01:23:48.703Z,1000.73
2017-07-03T01:24:48.732Z,1000.72
2017-07-03T01:25:48.756Z,1000.73
2017-07-03T01:26:48.813Z,1000.75
2017-07-03T01:27:48.815Z,1000.8
2017-07-03T01:28:48.838Z,1000.81
2017-07-03T01:29:48.871Z,1000.8
2017-07-03T01:30:48.900Z,1000.82
2017-07-03T01:31:48.925Z,1000.8
2017-07-03T01:32:48.954Z,1000.82
2017-07-03T01:33:48.975Z,1000.79
2017-07-03T01:34:49.007Z,1000.84
2017-07-03T01:35:49.037Z,1000.89
2017-07-03T01:36:49.065Z,1000.82
2017-07-03T01:37:49.088Z,1000.84
2017-07-03T01:38:49.115Z,1000.81
2017-07-03T01:39:49.151Z,1000.77
2017-07-03T01:40:49.174Z,1000.76
2017-07-03T01:41:49.201Z,1000.78
2017-07-03T01:42:49.229Z,1000.76
2017-07-03T01:43:49.251Z,1000.73
2017-07-03T01:44:49.284Z,1000.75
2017-07-03T01:45:49.313Z,1000.74
2017-07-03T01:46:49.342Z,1000.72
2017-07-03T01:47:49.364Z,1000.73
2017-07-03T01:48:49.387Z,1000.72
2017-07-03T01:49:49.423Z,1000.75
2017-07-03T01:50:49.452Z,1000.7
2017-07-03T01:51:49.473Z,1000.69
2017-07-03T01:52:49.501Z,1000.68
2017-07-03T01:53:49.531Z,1000.62
2017-07-03T01:54:49.556Z,1000.65
2017-07-03T01:55:49.588Z,1000.63
2017-07-03T01:56:49.617Z,1000.68
2017-07-03T01:57:49.642Z,1000.61
2017-07-03T01:58:49.670Z,1000.6
2017-07-03T01:59:49.702Z,1000.64
2017-07-03T02:00:49.728Z,1000.62
2017-07-03T02:01:49.753Z,1000.63
2017-07-03T02:02:49.781Z,1000.64
2017-07-03T02:03:49.811Z,1000.64
2017-07-03T02:04:49.841Z,1000.59
2017-07-03T02:05:49.864Z,1000.63
2017-07-03T02:06:49.894Z,1000.62
2017-07-03T02:07:49.916Z,1000.59
2017-07-03T02:08:49.942Z,1000.59
2017-07-03T02:09:49.975Z,1000.55
2017-07-03T02:10:50.005Z,1000.59
2017-07-03T02:11:50.029Z,1000.57
2017-07-03T02:12:50.054Z,1000.54
2017-07-03T02:13:50.083Z,1000.56
2017-07-03T02:14:50.112Z,1000.54
2017-07-03T02:15:50.140Z,1000.53
2017-07-03T02:16:50.169Z,1000.51
2017-07-03T02:17:50.197Z,1000.54
2017-07-03T02:18:50.218Z,1000.51
2017-07-03T02:19:50.253Z,1000.5
2017-07-03T02:20:50.280Z,1000.47
2017-07-03T02:21:50.305Z,1000.52
2017-07-03T02:22:50.334Z,1000.46
2017-07-03T02:23:50.358Z,1000.51
2017-07-03T02:24:50.387Z,1000.51
2017-07-03T02:25:50.412Z,1000.47
2017-07-03T02:26:50.444Z,1000.49
2017-07-03T02:27:50.470Z,1000.52
2017-07-03T02:28:50.494Z,1000.51
2017-07-03T02:29:50.528Z,1000.51
2017-07-03T02:30:50.556Z,1000.5
2017-07-03T02:31:50.582Z,1000.47
2017-07-03T02:32:50.610Z,1000.49
2017-07-03T02:33:50.634Z,1000.48
2017-07-03T02:34:50.663Z,1000.5
2017-07-03T02:35:50.693Z,1000.48
2017-07-03T02:36:50.721Z,1000.48
2017-07-03T02:37:50.749Z,1000.47
2017-07-03T02:38:50.772Z,1000.47
2017-07-03T02:39:50.803Z,1000.43
2017-07-03T02:40:50.832Z,1000.44
2017-07-03T02:41:50.857Z,1000.46
2017-07-03T02:42:50.880Z,1000.45
2017-07-03T02:43:50.913Z,1000.44
2017-07-03T02:44:50.940Z,1000.44
2017-07-03T02:45:50.968Z,1000.45
2017-07-03T02:46:50.997Z,1000.42
2017-07-03T02:47:51.021Z,1000.46
2017-07-03T02:48:51.045Z,1000.46
2017-07-03T02:49:51.078Z,1000.49
2017-07-03T02:50:51.103Z,1000.46
2017-07-03T02:51:51.131Z,1000.48
2017-07-03T02:52:51.161Z,1000.49
2017-07-03T02:53:51.182Z,1000.52
2017-07-03T02:54:51.214Z,1000.54
2017-07-03T02:55:51.242Z,1000.48
2017-07-03T02:56:51.268Z,1000.47
2017-07-03T02:57:51.293Z,1000.5
2017-07-03T02:58:51.326Z,1000.47
2017-07-03T02:59:51.355Z,1000.5
2017-07-03T03:00:51.383Z,1000.48
2017-07-03T03:01:51.408Z,1000.43
2017-07-03T03:02:51.436Z,1000.46
2017-07-03T03:03:51.462Z,1000.5
2017-07-03T03:04:51.490Z,1000.51
2017-07-03T03:05:51.770Z,1000.51
2017-07-03T03:06:51.544Z,1000.51
2017-07-03T03:07:51.571Z,1000.53
2017-07-03T03:08:51.602Z,1000.49
2017-07-03T03:09:51.627Z,1000.51
2017-07-03T03:10:51.954Z,1000.47
2017-07-03T03:11:51.684Z,1000.46
2017-07-03T03:12:51.711Z,1000.55
2017-07-03T03:13:51.732Z,1000.58
2017-07-03T03:14:51.768Z,1000.57
2017-07-03T03:15:52.091Z,1000.57
2017-07-03T03:16:51.815Z,1000.59
2017-07-03T03:17:51.850Z,1000.6
2017-07-03T03:18:51.873Z,1000.62
2017-07-03T03:19:51.901Z,1000.62
2017-07-03T03:20:52.182Z,1000.69
2017-07-03T03:21:51.960Z,1000.67
2017-07-03T03:22:51.985Z,1000.63
2017-07-03T03:23:52.010Z,1000.64
2017-07-03T03:24:52.043Z,1000.67
2017-07-03T03:25:52.318Z,1000.65
2017-07-03T03:26:52.095Z,1000.68
2017-07-03T03:27:52.125Z,1000.69
2017-07-03T03:28:52.153Z,1000.67
2017-07-03T03:29:52.180Z,1000.7
2017-07-03T03:30:52.506Z,1000.68
2017-07-03T03:31:52.236Z,1000.71
2017-07-03T03:32:52.260Z,1000.7
2017-07-03T03:33:52.289Z,1000.71
2017-07-03T03:34:52.317Z,1000.72
2017-07-03T03:35:52.339Z,1000.71
2017-07-03T03:36:52.371Z,1000.69
2017-07-03T03:37:52.397Z,1000.73
2017-07-03T03:38:52.426Z,1000.73
2017-07-03T03:39:52.455Z,1000.71
2017-07-03T03:40:52.482Z,1000.73
2017-07-03T03:41:52.507Z,1000.71
2017-07-03T03:42:52.532Z,1000.73
2017-07-03T03:43:52.565Z,1000.72
2017-07-03T03:44:52.590Z,1000.71
2017-07-03T03:45:52.618Z,1000.7
2017-07-03T03:46:52.647Z,1000.67
2017-07-03T03:47:52.672Z,1000.69
2017-07-03T03:48:52.701Z,1000.7
2017-07-03T03:49:52.730Z,1000.71
2017-07-03T03:50:52.760Z,1000.67
2017-07-03T03:51:52.783Z,1000.7
2017-07-03T03:52:52.812Z,1000.66
2017-07-03T03:53:52.841Z,1000.7
2017-07-03T03:54:52.870Z,1000.69
2017-07-03T03:55:52.894Z,1000.71
2017-07-03T03:56:52.924Z,1000.73
2017-07-03T03:57:52.953Z,1000.73
2017-07-03T03:58:52.977Z,1000.68
2017-07-03T03:59:53.006Z,1000.67
2017-07-03T04:00:53.031Z,1000.69
2017-07-03T04:01:53.060Z,1000.67
2017-07-03T04:02:53.089Z,1000.69
2017-07-03T04:03:53.117Z,1000.71
2017-07-03T04:04:53.139Z,1000.72
2017-07-03T04:05:53.173Z,1000.76
2017-07-03T04:06:53.198Z,1000.75
2017-07-03T04:07:53.223Z,1000.71
2017-07-03T04:08:53.254Z,1000.72
2017-07-03T04:09:53.283Z,1000.71
2017-07-03T04:10:53.302Z,1000.74
2017-07-03T04:11:53.338Z,1000.76
2017-07-03T04:12:53.365Z,1000.76
2017-07-03T04:13:53.392Z,1000.78
2017-07-03T04:14:53.414Z,1000.76
2017-07-03T04:15:53.446Z,1000.74
2017-07-03T04:16:53.475Z,1000.69
2017-07-03T04:17:53.500Z,1000.73
2017-07-03T04:18:53.530Z,1000.71
2017-07-03T04:19:53.550Z,1000.72
2017-07-03T04:20:53.582Z,1000.67
2017-07-03T04:21:53.607Z,1000.69
2017-07-03T04:22:53.639Z,1000.71
2017-07-03T04:23:53.665Z,1000.7
2017-07-03T04:24:53.689Z,1000.68
2017-07-03T04:25:53.723Z,1000.71
2017-07-03T04:26:53.747Z,1000.68
2017-07-03T04:27:53.777Z,1000.68
2017-07-03T04:28:53.805Z,1000.7
2017-07-03T04:29:53.829Z,1000.71
2017-07-03T04:30:53.855Z,1000.66
2017-07-03T04:31:53.883Z,1000.7
2017-07-03T04:32:53.916Z,1000.74
2017-07-03T04:33:53.943Z,1000.69
2017-07-03T04:34:53.969Z,1000.72
2017-07-03T04:35:53.999Z,1000.72
2017-07-03T04:36:54.023Z,1000.71
2017-07-03T04:37:54.052Z,1000.72
2017-07-03T04:38:54.083Z,1000.73
2017-07-03T04:39:54.101Z,1000.68
2017-07-03T04:40:54.134Z,1000.77
2017-07-03T04:41:54.163Z,1000.73
2017-07-03T04:42:54.183Z,1000.73
2017-07-03T04:43:54.217Z,1000.72
2017-07-03T04:44:54.241Z,1000.76
2017-07-03T04:45:54.275Z,1000.75
2017-07-03T04:46:54.303Z,1000.76
2017-07-03T04:47:54.328Z,1000.76
2017-07-03T04:48:54.357Z,1000.76
2017-07-03T04:49:54.382Z,1000.76
2017-07-03T04:50:54.411Z,1000.8
2017-07-03T04:51:54.431Z,1000.75
2017-07-03T04:52:54.473Z,1000.77
2017-07-03T04:53:54.490Z,1000.76
2017-07-03T04:54:54.522Z,1000.74
2017-07-03T04:55:54.550Z,1000.75
2017-07-03T04:56:54.826Z,1000.74
2017-07-03T04:57:54.599Z,1000.73
2017-07-03T04:58:54.629Z,1000.79
2017-07-03T04:59:54.653Z,1000.78
2017-07-03T05:00:54.686Z,1000.79
2017-07-03T05:01:54.961Z,1000.76
2017-07-03T05:02:54.740Z,1000.75
2017-07-03T05:03:54.767Z,1000.8
2017-07-03T05:04:54.794Z,1000.81
2017-07-03T05:05:54.826Z,1000.78
2017-07-03T05:06:55.106Z,1000.78
2017-07-03T05:07:54.875Z,1000.77
2017-07-03T05:08:54.904Z,1000.77
2017-07-03T05:09:54.933Z,1000.79
2017-07-03T05:10:54.962Z,1000.81
2017-07-03T05:11:55.239Z,1000.84
2017-07-03T05:12:55.020Z,1000.83
2017-07-03T05:13:55.043Z,1000.86
2017-07-03T05:14:55.069Z,1000.87
2017-07-03T05:15:55.102Z,1000.9
2017-07-03T05:16:55.430Z,1000.85
2017-07-03T05:17:55.157Z,1000.85
2017-07-03T05:18:55.182Z,1000.88
2017-07-03T05:19:55.213Z,1000.89
2017-07-03T05:20:55.238Z,1000.9
2017-07-03T05:21:55.263Z,1000.84
2017-07-03T05:22:55.295Z,1000.87
2017-07-03T05:23:55.324Z,1000.88
2017-07-03T05:24:55.344Z,1000.88
2017-07-03T05:25:55.379Z,1000.87
2017-07-03T05:26:55.402Z,1000.87
2017-07-03T05:27:55.431Z,1000.86
2017-07-03T05:28:55.460Z,1000.87
2017-07-03T05:29:55.485Z,1000.86
2017-07-03T05:30:55.517Z,1000.84
2017-07-03T05:31:55.545Z,1000.86
2017-07-03T05:32:55.568Z,1000.9
2017-07-03T05:33:55.601Z,1000.84
2017-07-03T05:34:55.626Z,1000.86
2017-07-03T05:35:55.651Z,1000.9
2017-07-03T05:36:55.683Z,1000.87
2017-07-03T05:37:55.706Z,1000.86
2017-07-03T05:38:55.736Z,1000.89
2017-07-03T05:39:55.762Z,1000.84
2017-07-03T05:40:55.794Z,1000.84
2017-07-03T05:41:55.822Z,1000.87
2017-07-03T05:42:55.849Z,1000.84
2017-07-03T05:43:55.903Z,1000.86
2017-07-03T05:44:55.905Z,1000.87
2017-07-03T05:45:55.930Z,1000.9
2017-07-03T05:46:55.959Z,1000.96
2017-07-03T05:47:55.984Z,1000.92
2017-07-03T05:48:56.012Z,1001
2017-07-03T05:49:56.037Z,1000.98
2017-07-03T05:50:56.076Z,1001.03
2017-07-03T05:51:56.093Z,1001.01
2017-07-03T05:52:56.129Z,1001.01
2017-07-03T05:53:56.151Z,1001
2017-07-03T05:54:56.173Z,1001.02
2017-07-03T05:55:56.209Z,1001.07
2017-07-03T05:56:56.235Z,1001.03
2017-07-03T05:57:56.267Z,1001.08
2017-07-03T05:58:56.289Z,1001.1
2017-07-03T05:59:56.321Z,1001.08
2017-07-03T06:00:56.342Z,1001.06
2017-07-03T06:01:56.376Z,1001.06
2017-07-03T06:02:56.403Z,1001.07
2017-07-03T06:03:56.432Z,1001.05
2017-07-03T06:04:56.458Z,1001.06
2017-07-03T06:05:56.486Z,1001.11
2017-07-03T06:06:56.514Z,1001.13
2017-07-03T06:07:56.540Z,1001.11
2017-07-03T06:08:56.565Z,1001.12
2017-07-03T06:09:56.597Z,1001.17
2017-07-03T06:10:56.627Z,1001.13
2017-07-03T06:11:56.655Z,1001.15
2017-07-03T06:12:56.680Z,1001.11
2017-07-03T06:13:56.709Z,1001.15
2017-07-03T06:14:56.735Z,1001.1
2017-07-03T06:15:56.766Z,1001.1
2017-07-03T06:16:56.790Z,1001.06
2017-07-03T06:17:56.825Z,1001.08
2017-07-03T06:18:56.848Z,1001.12
2017-07-03T06:19:56.873Z,1001.11
2017-07-03T06:20:56.901Z,1001.14
2017-07-03T06:21:56.929Z,1001.12
2017-07-03T06:22:56.959Z,1001.11
2017-07-03T06:23:56.981Z,1001.13
2017-07-03T06:24:57.012Z,1001.12
2017-07-03T06:25:57.053Z,1001.12
2017-07-03T06:26:57.070Z,1001.12
2017-07-03T06:27:57.099Z,1001.15
2017-07-03T06:28:57.124Z,1001.13
2017-07-03T06:29:57.149Z,1001.14
2017-07-03T06:30:57.182Z,1001.17
2017-07-03T06:31:57.210Z,1001.12
2017-07-03T06:32:57.235Z,1001.14
2017-07-03T06:33:57.264Z,1001.17
2017-07-03T06:34:57.289Z,1001.15
2017-07-03T06:35:57.318Z,1001.16
2017-07-03T06:36:57.349Z,1001.15
2017-07-03T06:37:57.379Z,1001.14
2017-07-03T06:38:57.400Z,1001.12
2017-07-03T06:39:57.433Z,1001.11
2017-07-03T06:40:57.463Z,1001.12
2017-07-03T06:41:57.491Z,1001.16
2017-07-03T06:42:57.521Z,1001.09
2017-07-03T06:43:57.545Z,1001.13
2017-07-03T06:44:57.575Z,1001.12
2017-07-03T06:45:57.603Z,1001.18
2017-07-03T06:46:57.622Z,1001.16
2017-07-03T06:47:57.656Z,1001.18
2017-07-03T06:48:57.680Z,1001.15
2017-07-03T06:49:57.708Z,1001.19
2017-07-03T06:50:57.737Z,1001.15
2017-07-03T06:51:57.762Z,1001.17
2017-07-03T06:52:57.795Z,1001.13
2017-07-03T06:53:57.823Z,1001.14
2017-07-03T06:54:57.849Z,1001.13
2017-07-03T06:55:57.877Z,1001.16
2017-07-03T06:56:57.907Z,1001.13
2017-07-03T06:57:57.936Z,1001.15
2017-07-03T06:58:57.967Z,1001.14
2017-07-03T06:59:57.989Z,1001.13
2017-07-03T07:00:58.014Z,1001.12
2017-07-03T07:01:58.047Z,1001.15
2017-07-03T07:02:58.076Z,1001.17
2017-07-03T07:03:58.103Z,1001.16
2017-07-03T07:04:58.126Z,1001.17
2017-07-03T07:05:58.158Z,1001.19
2017-07-03T07:06:58.182Z,1001.2
2017-07-03T07:07:58.214Z,1001.18
2017-07-03T07:08:58.239Z,1001.19
2017-07-03T07:09:58.270Z,1001.21
2017-07-03T07:10:58.297Z,1001.17
2017-07-03T07:11:58.326Z,1001.14
2017-07-03T07:12:58.348Z,1001.2
2017-07-03T07:13:58.379Z,1001.19
2017-07-03T07:14:58.411Z,1001.15
2017-07-03T07:15:58.433Z,1001.22
2017-07-03T07:16:58.466Z,1001.21
2017-07-03T07:17:58.489Z,1001.21
2017-07-03T07:18:58.515Z,1001.2
2017-07-03T07:19:58.547Z,1001.19
2017-07-03T07:20:58.577Z,1001.19
2017-07-03T07:21:58.605Z,1001.22
2017-07-03T07:22:58.627Z,1001.21
2017-07-03T07:23:58.659Z,1001.21
2017-07-03T07:24:58.689Z,1001.21
2017-07-03T07:25:58.718Z,1001.18
2017-07-03T07:26:58.747Z,1001.2
2017-07-03T07:27:58.769Z,1001.17
2017-07-03T07:28:58.800Z,1001.17
2017-07-03T07:29:58.825Z,1001.16
2017-07-03T07:30:58.857Z,1001.16
2017-07-03T07:31:58.883Z,1001.18
2017-07-03T07:32:58.912Z,1001.1
2017-07-03T07:33:58.935Z,1001.09
2017-07-03T07:34:58.967Z,1001.11
2017-07-03T07:35:58.997Z,1001.13
2017-07-03T07:36:59.022Z,1001.14
2017-07-03T07:37:59.050Z,1001.12
2017-07-03T07:38:59.075Z,1001.12
2017-07-03T07:39:59.108Z,1001.14
2017-07-03T07:40:59.137Z,1001.12
2017-07-03T07:41:59.161Z,1001.15
2017-07-03T07:42:59.191Z,1001.16
2017-07-03T07:43:59.216Z,1001.12
2017-07-03T07:44:59.248Z,1001.15
2017-07-03T07:45:59.273Z,1001.15
2017-07-03T07:46:59.302Z,1001.12
2017-07-03T07:47:59.331Z,1001.17
2017-07-03T07:48:59.355Z,1001.12
2017-07-03T07:49:59.388Z,1001.2
2017-07-03T07:50:59.414Z,1001.18
2017-07-03T07:51:59.441Z,1001.18
2017-07-03T07:52:59.466Z,1001.16
2017-07-03T07:53:59.495Z,1001.13
2017-07-03T07:54:59.529Z,1001.14
2017-07-03T07:55:59.553Z,1001.09
2017-07-03T07:56:59.581Z,1001.13
2017-07-03T07:57:59.861Z,1001.15
2017-07-03T07:58:59.639Z,1001.12
2017-07-03T07:59:59.668Z,1001.14
2017-07-03T08:00:59.697Z,1001.15
2017-07-03T08:01:59.726Z,1001.11
2017-07-03T08:03:00.054Z,1001.13
2017-07-03T08:03:59.779Z,1001.12
2017-07-03T08:04:59.808Z,1001.1
2017-07-03T08:05:59.837Z,1001.09
2017-07-03T08:06:59.865Z,1001.06
2017-07-03T08:08:00.145Z,1001.1
2017-07-03T08:08:59.919Z,1001.09
2017-07-03T08:09:59.948Z,1001.09
2017-07-03T08:10:59.972Z,1001.1
2017-07-03T08:12:00.003Z,1001.06
2017-07-03T08:13:00.285Z,1001.06
2017-07-03T08:14:00.062Z,1001.08
2017-07-03T08:15:00.090Z,1001.09
2017-07-03T08:16:00.113Z,1001.08
2017-07-03T08:17:00.144Z,1001.04
2017-07-03T08:18:00.426Z,1001.07
2017-07-03T08:19:00.201Z,1001.07
2017-07-03T08:20:00.231Z,1001.04
2017-07-03T08:21:00.260Z,1001.01
2017-07-03T08:22:00.286Z,1001.02
2017-07-03T08:23:00.310Z,1001.12
2017-07-03T08:24:00.343Z,1001.11
2017-07-03T08:25:00.367Z,1001.06
2017-07-03T08:26:00.404Z,1001.11
2017-07-03T08:27:00.432Z,1001.11
2017-07-03T08:28:00.454Z,1001.13
2017-07-03T08:29:00.487Z,1001.12
2017-07-03T08:30:00.515Z,1001.09
2017-07-03T08:31:00.539Z,1001.1
2017-07-03T08:32:00.575Z,1001.13
2017-07-03T08:33:00.594Z,1001.09
2017-07-03T08:34:00.623Z,1001.11
2017-07-03T08:35:00.652Z,1001.07
2017-07-03T08:36:00.687Z,1001.05
2017-07-03T08:37:00.709Z,1001.06
2017-07-03T08:38:00.735Z,1001.11
2017-07-03T08:39:00.765Z,1001.11
2017-07-03T08:40:00.796Z,1001.04
2017-07-03T08:41:00.824Z,1001.08
2017-07-03T08:42:00.858Z,1001.07
2017-07-03T08:43:00.876Z,1001.02
2017-07-03T08:44:00.906Z,1001.04
2017-07-03T08:45:00.932Z,1000.99
2017-07-03T08:46:00.964Z,1001.03
2017-07-03T08:47:00.993Z,1001.04
2017-07-03T08:48:01.018Z,1000.98
2017-07-03T08:49:01.045Z,1001.01
2017-07-03T08:50:01.079Z,1001
2017-07-03T08:51:01.109Z,1001
2017-07-03T08:52:01.129Z,1001.02
2017-07-03T08:53:01.163Z,1001.01
2017-07-03T08:54:01.191Z,1000.97
2017-07-03T08:55:01.220Z,1001.01
2017-07-03T08:56:01.248Z,1001.01
2017-07-03T08:57:01.272Z,1001.02
2017-07-03T08:58:01.306Z,1001
2017-07-03T08:59:01.333Z,1000.96
2017-07-03T09:00:01.363Z,1000.94
2017-07-03T09:01:01.394Z,1000.92
2017-07-03T09:02:01.413Z,1000.96
2017-07-03T09:03:01.446Z,1000.93
2017-07-03T09:04:01.476Z,1000.93
2017-07-03T09:05:01.503Z,1000.97
2017-07-03T09:06:01.527Z,1000.94
2017-07-03T09:07:01.556Z,1000.91
2017-07-03T09:08:01.590Z,1000.92
2017-07-03T09:09:01.619Z,1000.93
2017-07-03T09:10:01.643Z,1000.89
2017-07-03T09:11:01.673Z,1000.88
2017-07-03T09:12:01.701Z,1000.86
2017-07-03T09:13:01.729Z,1000.8
2017-07-03T09:14:01.758Z,1000.77
2017-07-03T09:15:01.788Z,1000.77
2017-07-03T09:16:01.816Z,1000.77
2017-07-03T09:17:01.845Z,1000.73
2017-07-03T09:18:01.870Z,1000.69
2017-07-03T09:19:01.902Z,1000.71
2017-07-03T09:20:01.927Z,1000.7
2017-07-03T09:21:01.952Z,1000.67
2017-07-03T09:22:01.985Z,1000.66
2017-07-03T09:23:02.038Z,1000.62
2017-07-03T09:24:02.063Z,1000.63
2017-07-03T09:25:02.093Z,1000.6
2017-07-03T09:26:02.118Z,1000.59
2017-07-03T09:27:02.131Z,1000.57
2017-07-03T09:28:02.157Z,1000.56
2017-07-03T09:29:02.185Z,1000.54
2017-07-03T09:30:02.229Z,1000.58
2017-07-03T09:31:02.238Z,1000.56
2017-07-03T09:32:02.268Z,1000.58
2017-07-03T09:33:02.297Z,1000.56
2017-07-03T09:34:02.321Z,1000.48
2017-07-03T09:35:02.355Z,1000.46
2017-07-03T09:36:02.379Z,1000.52
2017-07-03T09:37:02.412Z,1000.52
2017-07-03T09:38:02.436Z,1000.52
2017-07-03T09:39:02.470Z,1000.5
2017-07-03T09:40:02.499Z,1000.51
2017-07-03T09:41:02.527Z,1000.54
2017-07-03T09:42:02.556Z,1000.57
2017-07-03T09:43:02.585Z,1000.53
2017-07-03T09:44:02.914Z,1000.51
2017-07-03T09:45:02.642Z,1000.49
2017-07-03T09:46:02.671Z,1000.5
2017-07-03T09:47:02.698Z,1000.53
2017-07-03T09:48:02.727Z,1000.48
2017-07-03T09:49:03.054Z,1000.51
2017-07-03T09:50:02.779Z,1000.49
2017-07-03T09:51:02.811Z,1000.47
2017-07-03T09:52:02.841Z,1000.49
2017-07-03T09:53:02.869Z,1000.48
2017-07-03T09:54:03.150Z,1000.45
2017-07-03T09:55:02.927Z,1000.45
2017-07-03T09:56:02.955Z,1000.45
2017-07-03T09:57:02.984Z,1000.42
2017-07-03T09:58:03.013Z,1000.45
2017-07-03T09:59:03.339Z,1000.41
2017-07-03T10:00:03.072Z,1000.45
2017-07-03T10:01:03.099Z,1000.44
2017-07-03T10:02:03.128Z,1000.48
2017-07-03T10:03:03.157Z,1000.48
2017-07-03T10:04:03.486Z,1000.47
2017-07-03T10:05:03.225Z,1000.5
2017-07-03T10:06:03.243Z,1000.46
2017-07-03T10:07:03.269Z,1000.43
2017-07-03T10:08:03.350Z,1000.47
2017-07-03T10:09:03.325Z,1000.42
2017-07-03T10:10:03.359Z,1000.43
2017-07-03T10:11:03.388Z,1000.43
2017-07-03T10:12:03.416Z,1000.42
2017-07-03T10:13:03.440Z,1000.37
2017-07-03T10:14:03.470Z,1000.45
2017-07-03T10:15:03.503Z,1000.42
2017-07-03T10:16:03.527Z,1000.43
2017-07-03T10:17:03.552Z,1000.43
2017-07-03T10:18:03.588Z,1000.44
2017-07-03T10:19:03.618Z,1000.42
2017-07-03T10:20:03.647Z,1000.45
2017-07-03T10:21:03.676Z,1000.35
2017-07-03T10:22:03.705Z,1000.37
2017-07-03T10:23:03.734Z,1000.4
2017-07-03T10:24:03.763Z,1000.39
2017-07-03T10:25:03.791Z,1000.41
2017-07-03T10:26:03.819Z,1000.42
2017-07-03T10:27:03.847Z,1000.36
2017-07-03T10:28:03.873Z,1000.36
2017-07-03T10:29:03.905Z,1000.39
2017-07-03T10:30:03.934Z,1000.34
2017-07-03T10:31:03.963Z,1000.31
2017-07-03T10:32:03.991Z,1000.31
2017-07-03T10:33:04.018Z,1000.29
2017-07-03T10:34:04.051Z,1000.36
2017-07-03T10:35:04.078Z,1000.31
2017-07-03T10:36:04.107Z,1000.33
2017-07-03T10:37:04.134Z,1000.32
2017-07-03T10:38:04.164Z,1000.42
2017-07-03T10:39:04.189Z,1000.3
2017-07-03T10:40:04.222Z,1000.32
2017-07-03T10:41:04.248Z,1000.33
2017-07-03T10:42:04.280Z,1000.39
2017-07-03T10:43:04.310Z,1000.34
2017-07-03T10:44:04.338Z,1000.4
2017-07-03T10:45:04.363Z,1000.38
2017-07-03T10:46:04.394Z,1000.33
2017-07-03T10:47:04.422Z,1000.3
2017-07-03T10:48:04.457Z,1000.29
2017-07-03T10:49:04.482Z,1000.29
2017-07-03T10:50:04.511Z,1000.25
2017-07-03T10:51:04.545Z,1000.26
2017-07-03T10:52:04.571Z,1000.29
2017-07-03T10:53:04.595Z,1000.26
2017-07-03T10:54:04.636Z,1000.27
2017-07-03T10:55:04.658Z,1000.21
2017-07-03T10:56:04.687Z,1000.19
2017-07-03T10:57:04.711Z,1000.16
2017-07-03T10:58:04.744Z,1000.19
2017-07-03T10:59:04.768Z,1000.17
2017-07-03T11:00:04.801Z,1000.16
2017-07-03T11:01:04.826Z,1000.16
2017-07-03T11:02:04.863Z,1000.13
2017-07-03T11:03:04.884Z,1000.14
2017-07-03T11:04:04.922Z,1000.09
2017-07-03T11:05:04.950Z,1000.06
2017-07-03T11:06:04.980Z,1000.03
2017-07-03T11:07:05.007Z,1000.04
2017-07-03T11:08:05.036Z,1000.05
2017-07-03T11:09:05.066Z,1000.03
2017-07-03T11:10:05.094Z,999.94
2017-07-03T11:11:05.128Z,999.99
2017-07-03T11:12:05.152Z,999.96
2017-07-03T11:13:05.184Z,999.96
2017-07-03T11:14:05.210Z,1000.04
2017-07-03T11:15:05.243Z,1000
2017-07-03T11:16:05.272Z,999.96
2017-07-03T11:17:05.299Z,999.93
2017-07-03T11:18:05.328Z,999.89
2017-07-03T11:19:05.356Z,999.92
2017-07-03T11:20:05.382Z,999.94
2017-07-03T11:21:05.420Z,999.92
2017-07-03T11:22:05.447Z,999.87
2017-07-03T11:23:05.473Z,999.9
2017-07-03T11:24:05.505Z,999.92
2017-07-03T11:25:05.534Z,999.92
2017-07-03T11:26:05.562Z,999.92
2017-07-03T11:27:05.591Z,999.91
2017-07-03T11:28:05.620Z,999.9
2017-07-03T11:29:05.644Z,999.85
2017-07-03T11:30:05.681Z,999.87
2017-07-03T11:31:05.705Z,999.86
2017-07-03T11:32:05.739Z,999.88
2017-07-03T11:33:05.768Z,999.87
2017-07-03T11:34:05.793Z,999.84
2017-07-03T11:35:05.825Z,999.91
2017-07-03T11:36:05.854Z,999.88
2017-07-03T11:37:05.888Z,999.93
2017-07-03T11:38:05.912Z,999.93
2017-07-03T11:39:05.955Z,999.9
2017-07-03T11:40:05.984Z,999.84
2017-07-03T11:41:06.002Z,999.91
2017-07-03T11:42:06.027Z,999.91
2017-07-03T11:43:06.055Z,999.91
2017-07-03T11:44:06.094Z,1000
2017-07-03T11:45:06.123Z,999.95
2017-07-03T11:46:06.142Z,999.96
2017-07-03T11:47:06.180Z,999.97
2017-07-03T11:48:06.211Z,1000
2017-07-03T11:49:06.240Z,999.94
2017-07-03T11:50:06.265Z,999.98
2017-07-03T11:51:06.302Z,999.87
2017-07-03T11:52:06.328Z,999.85
2017-07-03T11:53:06.360Z,999.75
2017-07-03T11:54:06.394Z,999.89
2017-07-03T11:55:06.420Z,999.97
2017-07-03T11:56:06.451Z,999.92
2017-07-03T11:57:06.480Z,999.96
2017-07-03T11:58:06.515Z,999.87
2017-07-03T11:59:06.545Z,999.91
2017-07-03T12:00:06.577Z,999.97
2017-07-03T12:01:06.611Z,999.98
2017-07-03T12:02:06.639Z,999.85
2017-07-03T12:03:06.674Z,999.75
2017-07-03T12:04:06.701Z,999.86
2017-07-03T12:05:06.731Z,999.89
2017-07-03T12:06:06.767Z,999.85
2017-07-03T12:07:06.791Z,999.79
2017-07-03T12:08:06.826Z,999.78
2017-07-03T12:09:06.855Z,999.8
2017-07-03T12:10:06.889Z,999.83
2017-07-03T12:11:06.925Z,999.7